Terminal Aerodrome Forecast
Issued by NWS Springfield, MO

Home | Current Version | Previous Version | Text Only | Print | Product List | Glossary On
Versions: 1 2 3 4 5 6 7 8 9 10 11 12 13 14 15 16 17 18 19 20
000
FTUS43 KSGF 162300 RRA
TAFSGF
TAF
KSGF 162337Z 1700/1724 17018G25KT P6SM SCT250
     FM170100 16011KT P6SM BKN250
     FM170800 17007KT P6SM OVC150
     FM171700 VRB04KT P6SM SCT050 OVC150
     FM172100 36007KT P6SM BKN050 OVC120=

USA.gov is the U.S. government's official web portal to all federal, state and local government web resources and services.